sensor_id;sensor_type;location;lat;lon;timestamp;pressure;altitude;pressure_sealevel;temperature;humidity
71964;BME280;59834;52.124;5.422;2022-08-19T00:01:58;101421.59;;;17.57;85.34
71964;BME280;59834;52.124;5.422;2022-08-19T00:04:39;101424.78;;;17.51;85.75
71964;BME280;59834;52.124;5.422;2022-08-19T00:07:24;101420.69;;;17.47;85.26
71964;BME280;59834;52.124;5.422;2022-08-19T00:13:07;101429.88;;;17.42;85.01
71964;BME280;59834;52.124;5.422;2022-08-19T00:15:37;101431.81;;;17.40;85.24
71964;BME280;59834;52.124;5.422;2022-08-19T00:18:28;101435.41;;;17.39;86.09
71964;BME280;59834;52.124;5.422;2022-08-19T00:21:31;101437.47;;;17.36;85.79
71964;BME280;59834;52.124;5.422;2022-08-19T00:24:01;101433.41;;;17.32;86.05
71964;BME280;59834;52.124;5.422;2022-08-19T00:26:51;101424.50;;;17.33;86.71
71964;BME280;59834;52.124;5.422;2022-08-19T00:29:51;101419.94;;;17.35;86.42
71964;BME280;59834;52.124;5.422;2022-08-19T00:33:09;101429.78;;;17.33;86.00
71964;BME280;59834;52.124;5.422;2022-08-19T00:35:40;101425.47;;;17.32;86.44
71964;BME280;59834;52.124;5.422;2022-08-19T00:38:21;101426.56;;;17.29;85.85
71964;BME280;59834;52.124;5.422;2022-08-19T00:41:05;101425.00;;;17.27;86.44
71964;BME280;59834;52.124;5.422;2022-08-19T00:43:34;101427.78;;;17.25;86.35
71964;BME280;59834;52.124;5.422;2022-08-19T00:46:09;101420.09;;;17.22;86.33
71964;BME280;59834;52.124;5.422;2022-08-19T00:48:50;101424.06;;;17.16;86.18
71964;BME280;59834;52.124;5.422;2022-08-19T00:51:29;101423.47;;;17.13;86.06
71964;BME280;59834;52.124;5.422;2022-08-19T00:54:00;101427.09;;;17.12;86.36
71964;BME280;59834;52.124;5.422;2022-08-19T01:00:39;101417.50;;;17.00;86.81
71964;BME280;59834;52.124;5.422;2022-08-19T01:06:23;101423.06;;;16.96;87.15
71964;BME280;59834;52.124;5.422;2022-08-19T01:08:54;101423.06;;;16.96;87.10
71964;BME280;59834;52.124;5.422;2022-08-19T01:11:43;101423.91;;;16.97;87.41
71964;BME280;59834;52.124;5.422;2022-08-19T01:14:41;101424.63;;;16.99;86.17
71964;BME280;59834;52.124;5.422;2022-08-19T01:17:16;101417.75;;;16.96;86.57
71964;BME280;59834;52.124;5.422;2022-08-19T01:19:51;101423.31;;;16.93;86.32
71964;BME280;59834;52.124;5.422;2022-08-19T01:22:34;101416.59;;;16.89;86.11
71964;BME280;59834;52.124;5.422;2022-08-19T01:28:29;101422.34;;;16.83;85.62
71964;BME280;59834;52.124;5.422;2022-08-19T01:31:14;101423.72;;;16.78;85.64
71964;BME280;59834;52.124;5.422;2022-08-19T01:34:19;101425.25;;;16.69;85.13
71964;BME280;59834;52.124;5.422;2022-08-19T01:39:54;101428.41;;;16.52;85.39
71964;BME280;59834;52.124;5.422;2022-08-19T01:42:32;101428.28;;;16.42;86.08
71964;BME280;59834;52.124;5.422;2022-08-19T01:45:01;101424.94;;;16.40;86.42
71964;BME280;59834;52.124;5.422;2022-08-19T01:47:31;101423.84;;;16.42;85.96
71964;BME280;59834;52.124;5.422;2022-08-19T01:50:13;101418.91;;;16.38;85.97
71964;BME280;59834;52.124;5.422;2022-08-19T01:53:19;101407.88;;;16.33;85.83
71964;BME280;59834;52.124;5.422;2022-08-19T01:56:35;101421.44;;;16.28;85.86
71964;BME280;59834;52.124;5.422;2022-08-19T01:59:12;101430.34;;;16.27;86.53
71964;BME280;59834;52.124;5.422;2022-08-19T02:01:43;101428.53;;;16.27;86.20
71964;BME280;59834;52.124;5.422;2022-08-19T02:04:41;101438.84;;;16.31;86.48
71964;BME280;59834;52.124;5.422;2022-08-19T02:07:32;101427.56;;;16.29;86.89
71964;BME280;59834;52.124;5.422;2022-08-19T02:13:18;101425.53;;;16.10;85.44
71964;BME280;59834;52.124;5.422;2022-08-19T02:16:17;101424.78;;;16.08;85.90
71964;BME280;59834;52.124;5.422;2022-08-19T02:19:01;101429.09;;;16.09;86.18
71964;BME280;59834;52.124;5.422;2022-08-19T02:21:37;101429.25;;;16.07;85.87
71964;BME280;59834;52.124;5.422;2022-08-19T02:24:44;101426.09;;;16.02;85.94
71964;BME280;59834;52.124;5.422;2022-08-19T02:27:11;101421.41;;;15.94;86.30
71964;BME280;59834;52.124;5.422;2022-08-19T02:29:41;101431.00;;;15.95;86.32
71964;BME280;59834;52.124;5.422;2022-08-19T02:32:15;101438.09;;;15.95;86.18
71964;BME280;59834;52.124;5.422;2022-08-19T02:35:00;101438.22;;;15.93;86.54
71964;BME280;59834;52.124;5.422;2022-08-19T02:37:42;101442.66;;;15.93;86.35
71964;BME280;59834;52.124;5.422;2022-08-19T02:40:37;101440.72;;;15.84;86.11
71964;BME280;59834;52.124;5.422;2022-08-19T02:43:30;101450.28;;;15.73;86.17
71964;BME280;59834;52.124;5.422;2022-08-19T02:49:08;101456.50;;;15.72;86.74
71964;BME280;59834;52.124;5.422;2022-08-19T02:51:42;101447.06;;;15.70;86.95
71964;BME280;59834;52.124;5.422;2022-08-19T02:55:01;101446.22;;;15.69;87.26
71964;BME280;59834;52.124;5.422;2022-08-19T02:57:37;101451.50;;;15.69;87.69
71964;BME280;59834;52.124;5.422;2022-08-19T03:00:12;101447.06;;;15.70;87.68
71964;BME280;59834;52.124;5.422;2022-08-19T03:02:44;101451.13;;;15.74;87.62
71964;BME280;59834;52.124;5.422;2022-08-19T03:05:14;101460.03;;;15.73;86.71
71964;BME280;59834;52.124;5.422;2022-08-19T03:07:44;101453.59;;;15.64;87.60
71964;BME280;59834;52.124;5.422;2022-08-19T03:10:13;101444.94;;;15.62;87.33
71964;BME280;59834;52.124;5.422;2022-08-19T03:12:58;101444.69;;;15.54;86.69
71964;BME280;59834;52.124;5.422;2022-08-19T03:15:32;101439.25;;;15.44;87.26
71964;BME280;59834;52.124;5.422;2022-08-19T03:17:59;101433.59;;;15.38;87.71
71964;BME280;59834;52.124;5.422;2022-08-19T03:20:27;101431.63;;;15.28;87.92
71964;BME280;59834;52.124;5.422;2022-08-19T03:22:56;101430.00;;;15.15;88.66
71964;BME280;59834;52.124;5.422;2022-08-19T03:25:22;101436.34;;;15.12;88.72
71964;BME280;59834;52.124;5.422;2022-08-19T03:27:49;101433.81;;;15.11;88.90
71964;BME280;59834;52.124;5.422;2022-08-19T03:30:17;101434.03;;;15.07;88.67
71964;BME280;59834;52.124;5.422;2022-08-19T03:32:55;101438.81;;;15.02;89.03
71964;BME280;59834;52.124;5.422;2022-08-19T03:35:23;101428.16;;;15.04;89.19
71964;BME280;59834;52.124;5.422;2022-08-19T03:37:53;101441.94;;;15.07;90.06
71964;BME280;59834;52.124;5.422;2022-08-19T03:40:32;101430.34;;;15.10;89.73
71964;BME280;59834;52.124;5.422;2022-08-19T03:43:26;101435.50;;;15.12;89.90
71964;BME280;59834;52.124;5.422;2022-08-19T03:46:22;101438.88;;;15.14;89.51
71964;BME280;59834;52.124;5.422;2022-08-19T03:49:08;101437.69;;;15.18;89.55
71964;BME280;59834;52.124;5.422;2022-08-19T03:51:59;101431.44;;;15.19;88.75
71964;BME280;59834;52.124;5.422;2022-08-19T03:58:20;101426.66;;;15.13;89.02
71964;BME280;59834;52.124;5.422;2022-08-19T04:01:02;101426.88;;;15.09;89.05
71964;BME280;59834;52.124;5.422;2022-08-19T04:04:11;101428.03;;;15.05;89.21
71964;BME280;59834;52.124;5.422;2022-08-19T04:06:43;101438.69;;;15.04;88.79
71964;BME280;59834;52.124;5.422;2022-08-19T04:09:13;101429.44;;;14.98;88.63
71964;BME280;59834;52.124;5.422;2022-08-19T04:14:46;101420.19;;;14.93;88.75
71964;BME280;59834;52.124;5.422;2022-08-19T04:17:17;101412.06;;;14.96;89.10
71964;BME280;59834;52.124;5.422;2022-08-19T04:20:01;101415.31;;;14.99;89.29
71964;BME280;59834;52.124;5.422;2022-08-19T04:22:46;101417.44;;;14.94;89.66
71964;BME280;59834;52.124;5.422;2022-08-19T04:25:46;101415.75;;;14.93;90.08
71964;BME280;59834;52.124;5.422;2022-08-19T04:28:31;101416.81;;;14.91;90.53
71964;BME280;59834;52.124;5.422;2022-08-19T04:31:03;101420.72;;;14.85;90.54
71964;BME280;59834;52.124;5.422;2022-08-19T04:34:10;101418.22;;;14.83;90.80
71964;BME280;59834;52.124;5.422;2022-08-19T04:37:04;101416.94;;;14.89;90.88
71964;BME280;59834;52.124;5.422;2022-08-19T04:40:30;101421.75;;;14.95;90.83
71964;BME280;59834;52.124;5.422;2022-08-19T04:43:19;101416.25;;;14.98;91.03
71964;BME280;59834;52.124;5.422;2022-08-19T04:46:09;101415.19;;;15.01;90.82
71964;BME280;59834;52.124;5.422;2022-08-19T04:48:49;101412.34;;;15.04;90.85
71964;BME280;59834;52.124;5.422;2022-08-19T04:54:45;101409.56;;;15.05;90.81
71964;BME280;59834;52.124;5.422;2022-08-19T04:57:26;101406.94;;;15.05;90.65
71964;BME280;59834;52.124;5.422;2022-08-19T05:00:08;101421.81;;;15.06;90.76
71964;BME280;59834;52.124;5.422;2022-08-19T05:02:37;101418.00;;;15.11;90.35
71964;BME280;59834;52.124;5.422;2022-08-19T05:05:27;101416.50;;;15.19;90.05
71964;BME280;59834;52.124;5.422;2022-08-19T05:08:13;101423.84;;;15.27;89.86
71964;BME280;59834;52.124;5.422;2022-08-19T05:11:18;101431.16;;;15.35;89.71
71964;BME280;59834;52.124;5.422;2022-08-19T05:14:33;101434.72;;;15.46;89.63
71964;BME280;59834;52.124;5.422;2022-08-19T05:17:50;101435.00;;;15.66;88.71
71964;BME280;59834;52.124;5.422;2022-08-19T05:20:46;101429.56;;;15.91;88.15
71964;BME280;59834;52.124;5.422;2022-08-19T05:23:39;101437.50;;;16.02;87.54
71964;BME280;59834;52.124;5.422;2022-08-19T05:26:13;101433.91;;;16.26;87.71
71964;BME280;59834;52.124;5.422;2022-08-19T05:28:40;101432.69;;;17.30;84.21
71964;BME280;59834;52.124;5.422;2022-08-19T05:31:14;101430.41;;;18.30;80.09
71964;BME280;59834;52.124;5.422;2022-08-19T05:33:46;101432.44;;;18.88;77.17
71964;BME280;59834;52.124;5.422;2022-08-19T05:36:32;101423.13;;;19.22;75.31
71964;BME280;59834;52.124;5.422;2022-08-19T05:39:02;101426.91;;;19.39;73.91
71964;BME280;59834;52.124;5.422;2022-08-19T05:41:35;101435.41;;;19.62;73.20
71964;BME280;59834;52.124;5.422;2022-08-19T05:44:16;101431.25;;;19.69;72.62
71964;BME280;59834;52.124;5.422;2022-08-19T05:46:46;101441.03;;;19.69;72.77
71964;BME280;59834;52.124;5.422;2022-08-19T05:49:47;101436.25;;;19.72;72.35
71964;BME280;59834;52.124;5.422;2022-08-19T05:52:16;101435.97;;;19.75;72.25
71964;BME280;59834;52.124;5.422;2022-08-19T05:54:45;101428.28;;;19.72;72.13
71964;BME280;59834;52.124;5.422;2022-08-19T05:57:18;101426.19;;;19.76;72.61
71964;BME280;59834;52.124;5.422;2022-08-19T05:59:45;101422.25;;;19.90;71.46
71964;BME280;59834;52.124;5.422;2022-08-19T06:02:30;101426.75;;;19.80;72.18
71964;BME280;59834;52.124;5.422;2022-08-19T06:04:57;101425.00;;;19.98;71.40
71964;BME280;59834;52.124;5.422;2022-08-19T06:07:24;101428.63;;;20.07;70.92
71964;BME280;59834;52.124;5.422;2022-08-19T06:09:50;101430.97;;;20.47;70.48
71964;BME280;59834;52.124;5.422;2022-08-19T06:12:27;101422.25;;;20.64;69.57
71964;BME280;59834;52.124;5.422;2022-08-19T06:14:58;101428.56;;;20.63;70.20
71964;BME280;59834;52.124;5.422;2022-08-19T06:17:30;101430.28;;;20.45;71.11
71964;BME280;59834;52.124;5.422;2022-08-19T06:19:58;101434.69;;;20.36;72.95
71964;BME280;59834;52.124;5.422;2022-08-19T06:22:25;101428.91;;;20.41;73.79
71964;BME280;59834;52.124;5.422;2022-08-19T06:24:52;101428.56;;;20.63;74.05
71964;BME280;59834;52.124;5.422;2022-08-19T06:27:21;101426.16;;;21.06;72.97
71964;BME280;59834;52.124;5.422;2022-08-19T06:29:47;101426.84;;;21.26;71.84
71964;BME280;59834;52.124;5.422;2022-08-19T06:32:16;101425.84;;;21.36;71.78
71964;BME280;59834;52.124;5.422;2022-08-19T06:34:43;101426.09;;;21.33;71.87
71964;BME280;59834;52.124;5.422;2022-08-19T06:37:10;101428.75;;;21.15;72.85
71964;BME280;59834;52.124;5.422;2022-08-19T06:39:39;101423.81;;;21.21;72.70
71964;BME280;59834;52.124;5.422;2022-08-19T06:42:07;101431.56;;;20.96;73.54
71964;BME280;59834;52.124;5.422;2022-08-19T06:44:38;101432.38;;;20.51;75.86
71964;BME280;59834;52.124;5.422;2022-08-19T06:47:14;101436.53;;;19.89;77.93
71964;BME280;59834;52.124;5.422;2022-08-19T06:49:53;101433.44;;;19.54;79.75
71964;BME280;59834;52.124;5.422;2022-08-19T06:52:26;101432.91;;;19.31;81.38
71964;BME280;59834;52.124;5.422;2022-08-19T06:54:53;101443.25;;;19.15;82.45
71964;BME280;59834;52.124;5.422;2022-08-19T06:57:25;101443.63;;;19.01;82.99
71964;BME280;59834;52.124;5.422;2022-08-19T06:59:52;101447.41;;;18.98;83.71
71964;BME280;59834;52.124;5.422;2022-08-19T07:02:19;101447.53;;;18.97;83.29
71964;BME280;59834;52.124;5.422;2022-08-19T07:04:47;101444.31;;;18.93;83.95
71964;BME280;59834;52.124;5.422;2022-08-19T07:07:18;101449.34;;;18.87;84.49
71964;BME280;59834;52.124;5.422;2022-08-19T07:09:48;101451.47;;;18.62;84.67
71964;BME280;59834;52.124;5.422;2022-08-19T07:12:30;101453.41;;;18.60;85.17
71964;BME280;59834;52.124;5.422;2022-08-19T07:15:06;101449.50;;;18.64;85.38
71964;BME280;59834;52.124;5.422;2022-08-19T07:17:34;101451.78;;;18.69;84.68
71964;BME280;59834;52.124;5.422;2022-08-19T07:20:06;101453.78;;;18.76;84.72
71964;BME280;59834;52.124;5.422;2022-08-19T07:22:36;101456.75;;;18.93;84.49
71964;BME280;59834;52.124;5.422;2022-08-19T07:25:03;101459.94;;;18.87;84.61
71964;BME280;59834;52.124;5.422;2022-08-19T07:27:31;101457.28;;;18.87;84.60
71964;BME280;59834;52.124;5.422;2022-08-19T07:29:59;101452.28;;;18.93;84.32
71964;BME280;59834;52.124;5.422;2022-08-19T07:32:25;101456.63;;;19.04;84.00
71964;BME280;59834;52.124;5.422;2022-08-19T07:34:53;101454.69;;;19.06;83.62
71964;BME280;59834;52.124;5.422;2022-08-19T07:37:23;101461.09;;;19.13;83.62
71964;BME280;59834;52.124;5.422;2022-08-19T07:39:58;101460.69;;;19.18;84.02
71964;BME280;59834;52.124;5.422;2022-08-19T07:42:25;101455.78;;;19.13;84.09
71964;BME280;59834;52.124;5.422;2022-08-19T07:44:51;101453.84;;;19.05;83.73
71964;BME280;59834;52.124;5.422;2022-08-19T07:47:19;101459.44;;;19.12;83.75
71964;BME280;59834;52.124;5.422;2022-08-19T07:50:08;101461.41;;;19.29;83.03
71964;BME280;59834;52.124;5.422;2022-08-19T07:52:36;101467.44;;;19.31;82.43
71964;BME280;59834;52.124;5.422;2022-08-19T07:55:07;101469.19;;;19.21;82.57
71964;BME280;59834;52.124;5.422;2022-08-19T07:57:54;101465.72;;;19.21;82.40
71964;BME280;59834;52.124;5.422;2022-08-19T08:00:21;101468.53;;;19.29;83.31
71964;BME280;59834;52.124;5.422;2022-08-19T08:02:50;101473.56;;;19.42;80.99
71964;BME280;59834;52.124;5.422;2022-08-19T08:05:20;101476.63;;;19.57;81.09
71964;BME280;59834;52.124;5.422;2022-08-19T08:08:11;101474.13;;;19.74;80.19
71964;BME280;59834;52.124;5.422;2022-08-19T08:10:57;101482.63;;;19.88;79.37
71964;BME280;59834;52.124;5.422;2022-08-19T08:13:24;101484.28;;;19.98;78.61
71964;BME280;59834;52.124;5.422;2022-08-19T08:15:53;101484.78;;;20.31;77.65
71964;BME280;59834;52.124;5.422;2022-08-19T08:18:27;101486.09;;;20.55;75.90
71964;BME280;59834;52.124;5.422;2022-08-19T08:20:59;101489.06;;;20.52;76.50
71964;BME280;59834;52.124;5.422;2022-08-19T08:23:26;101486.94;;;20.45;76.73
71964;BME280;59834;52.124;5.422;2022-08-19T08:25:57;101494.53;;;20.40;76.59
71964;BME280;59834;52.124;5.422;2022-08-19T08:36:43;101515.84;;;20.31;76.70
71964;BME280;59834;52.124;5.422;2022-08-19T08:39:52;101516.03;;;20.66;75.63
71964;BME280;59834;52.124;5.422;2022-08-19T08:54:40;101512.34;;;21.23;73.61
71964;BME280;59834;52.124;5.422;2022-08-19T09:00:47;101506.59;;;21.45;71.83
71964;BME280;59834;52.124;5.422;2022-08-19T09:03:41;101512.56;;;21.57;72.26
71964;BME280;59834;52.124;5.422;2022-08-19T09:10:38;101505.19;;;21.51;72.01
71964;BME280;59834;52.124;5.422;2022-08-19T09:15:58;101509.75;;;22.02;69.51
71964;BME280;59834;52.124;5.422;2022-08-19T09:18:49;101514.38;;;22.18;69.25
71964;BME280;59834;52.124;5.422;2022-08-19T09:21:24;101509.75;;;22.02;69.34
71964;BME280;59834;52.124;5.422;2022-08-19T09:23:58;101509.38;;;21.97;70.15
71964;BME280;59834;52.124;5.422;2022-08-19T09:26:25;101512.38;;;21.94;69.77
71964;BME280;59834;52.124;5.422;2022-08-19T09:29:15;101500.78;;;22.03;70.03
71964;BME280;59834;52.124;5.422;2022-08-19T09:31:43;101508.00;;;22.37;69.00
71964;BME280;59834;52.124;5.422;2022-08-19T09:34:12;101506.94;;;22.30;69.28
71964;BME280;59834;52.124;5.422;2022-08-19T09:36:48;101506.75;;;22.05;70.07
71964;BME280;59834;52.124;5.422;2022-08-19T09:39:23;101505.88;;;21.97;69.67
71964;BME280;59834;52.124;5.422;2022-08-19T09:41:49;101512.06;;;21.97;69.46
71964;BME280;59834;52.124;5.422;2022-08-19T09:44:17;101513.59;;;22.26;67.77
71964;BME280;59834;52.124;5.422;2022-08-19T09:46:44;101507.75;;;22.22;68.20
71964;BME280;59834;52.124;5.422;2022-08-19T09:49:15;101512.03;;;22.41;67.78
71964;BME280;59834;52.124;5.422;2022-08-19T09:51:49;101509.97;;;22.95;66.71
71964;BME280;59834;52.124;5.422;2022-08-19T09:54:19;101507.09;;;22.97;66.17
71964;BME280;59834;52.124;5.422;2022-08-19T09:56:51;101506.56;;;22.85;66.83
71964;BME280;59834;52.124;5.422;2022-08-19T09:59:22;101511.09;;;22.58;67.10
71964;BME280;59834;52.124;5.422;2022-08-19T10:01:51;101508.94;;;22.54;67.16
71964;BME280;59834;52.124;5.422;2022-08-19T10:04:19;101507.78;;;22.99;65.58
71964;BME280;59834;52.124;5.422;2022-08-19T10:07:55;101504.41;;;23.47;64.04
71964;BME280;59834;52.124;5.422;2022-08-19T10:10:41;101505.56;;;23.53;63.26
71964;BME280;59834;52.124;5.422;2022-08-19T10:13:19;101505.09;;;23.82;62.03
71964;BME280;59834;52.124;5.422;2022-08-19T10:15:56;101512.25;;;23.65;61.68
71964;BME280;59834;52.124;5.422;2022-08-19T10:18:28;101504.44;;;23.72;62.26
71964;BME280;59834;52.124;5.422;2022-08-19T10:21:26;101495.41;;;23.81;62.20
71964;BME280;59834;52.124;5.422;2022-08-19T10:24:02;101495.91;;;24.01;62.28
71964;BME280;59834;52.124;5.422;2022-08-19T10:26:34;101504.91;;;24.08;60.66
71964;BME280;59834;52.124;5.422;2022-08-19T10:29:04;101495.56;;;23.96;61.56
71964;BME280;59834;52.124;5.422;2022-08-19T10:31:34;101502.09;;;23.69;63.08
71964;BME280;59834;52.124;5.422;2022-08-19T10:34:23;101503.22;;;23.50;62.52
71964;BME280;59834;52.124;5.422;2022-08-19T10:36:54;101498.34;;;23.37;62.19
71964;BME280;59834;52.124;5.422;2022-08-19T10:40:11;101506.88;;;23.57;62.66
71964;BME280;59834;52.124;5.422;2022-08-19T10:43:25;101498.41;;;23.70;63.36
71964;BME280;59834;52.124;5.422;2022-08-19T10:45:55;101492.38;;;24.09;61.79
71964;BME280;59834;52.124;5.422;2022-08-19T10:48:42;101494.47;;;24.30;60.63
71964;BME280;59834;52.124;5.422;2022-08-19T10:51:14;101492.34;;;24.25;62.10
71964;BME280;59834;52.124;5.422;2022-08-19T10:54:01;101488.34;;;24.13;62.45
71964;BME280;59834;52.124;5.422;2022-08-19T10:56:38;101483.91;;;24.44;62.20
71964;BME280;59834;52.124;5.422;2022-08-19T11:03:09;101478.28;;;24.79;60.68
71964;BME280;59834;52.124;5.422;2022-08-19T11:05:39;101474.34;;;24.58;60.27
71964;BME280;59834;52.124;5.422;2022-08-19T11:08:41;101473.53;;;24.50;61.85
71964;BME280;59834;52.124;5.422;2022-08-19T11:11:12;101477.00;;;24.66;61.23
71964;BME280;59834;52.124;5.422;2022-08-19T11:14:03;101476.78;;;24.68;59.96
71964;BME280;59834;52.124;5.422;2022-08-19T11:16:34;101482.00;;;24.61;60.40
71964;BME280;59834;52.124;5.422;2022-08-19T11:19:26;101481.72;;;24.56;60.81
71964;BME280;59834;52.124;5.422;2022-08-19T11:21:58;101475.31;;;24.18;62.29
71964;BME280;59834;52.124;5.422;2022-08-19T11:24:30;101468.97;;;24.03;63.15
71964;BME280;59834;52.124;5.422;2022-08-19T11:27:05;101467.28;;;24.18;63.73
71964;BME280;59834;52.124;5.422;2022-08-19T11:29:37;101475.06;;;24.28;62.98
71964;BME280;59834;52.124;5.422;2022-08-19T11:32:06;101466.00;;;24.53;62.87
71964;BME280;59834;52.124;5.422;2022-08-19T11:34:33;101462.94;;;24.64;62.73
71964;BME280;59834;52.124;5.422;2022-08-19T11:37:02;101461.53;;;24.77;63.25
71964;BME280;59834;52.124;5.422;2022-08-19T11:39:33;101455.88;;;25.03;62.55
71964;BME280;59834;52.124;5.422;2022-08-19T11:42:01;101450.31;;;25.12;61.43
71964;BME280;59834;52.124;5.422;2022-08-19T11:44:30;101457.03;;;24.77;61.77
71964;BME280;59834;52.124;5.422;2022-08-19T11:47:00;101456.31;;;24.83;62.37
71964;BME280;59834;52.124;5.422;2022-08-19T11:49:34;101452.25;;;24.96;61.16
71964;BME280;59834;52.124;5.422;2022-08-19T11:52:02;101458.84;;;24.85;62.13
71964;BME280;59834;52.124;5.422;2022-08-19T11:54:29;101456.72;;;24.72;62.75
71964;BME280;59834;52.124;5.422;2022-08-19T11:56:57;101460.25;;;24.64;63.28
71964;BME280;59834;52.124;5.422;2022-08-19T11:59:23;101454.41;;;24.69;62.80
71964;BME280;59834;52.124;5.422;2022-08-19T12:01:50;101461.31;;;24.86;62.74
71964;BME280;59834;52.124;5.422;2022-08-19T12:04:17;101454.94;;;24.87;62.68
71964;BME280;59834;52.124;5.422;2022-08-19T12:06:47;101457.53;;;25.04;62.33
71964;BME280;59834;52.124;5.422;2022-08-19T12:09:13;101459.13;;;24.90;61.74
71964;BME280;59834;52.124;5.422;2022-08-19T12:11:41;101460.72;;;24.76;62.47
71964;BME280;59834;52.124;5.422;2022-08-19T12:14:12;101459.91;;;24.67;62.46
71964;BME280;59834;52.124;5.422;2022-08-19T12:16:44;101464.41;;;24.75;63.11
71964;BME280;59834;52.124;5.422;2022-08-19T12:19:16;101460.44;;;24.63;63.46
71964;BME280;59834;52.124;5.422;2022-08-19T12:21:50;101475.75;;;24.46;63.74
71964;BME280;59834;52.124;5.422;2022-08-19T12:24:19;101466.41;;;24.26;64.12
71964;BME280;59834;52.124;5.422;2022-08-19T12:26:49;101467.78;;;24.13;64.49
71964;BME280;59834;52.124;5.422;2022-08-19T12:29:19;101466.31;;;23.94;64.71
71964;BME280;59834;52.124;5.422;2022-08-19T12:31:49;101463.50;;;23.88;66.10
71964;BME280;59834;52.124;5.422;2022-08-19T12:34:16;101467.66;;;23.82;65.95
71964;BME280;59834;52.124;5.422;2022-08-19T12:36:44;101466.00;;;23.73;66.63
71964;BME280;59834;52.124;5.422;2022-08-19T12:39:10;101466.69;;;23.75;66.53
71964;BME280;59834;52.124;5.422;2022-08-19T12:41:38;101470.03;;;23.69;66.58
71964;BME280;59834;52.124;5.422;2022-08-19T12:44:20;101466.47;;;23.60;68.29
71964;BME280;59834;52.124;5.422;2022-08-19T12:46:55;101470.66;;;23.55;68.02
71964;BME280;59834;52.124;5.422;2022-08-19T12:49:22;101474.16;;;23.63;67.63
71964;BME280;59834;52.124;5.422;2022-08-19T12:52:11;101467.97;;;23.87;67.55
71964;BME280;59834;52.124;5.422;2022-08-19T12:54:42;101463.03;;;24.48;66.77
71964;BME280;59834;52.124;5.422;2022-08-19T12:57:10;101458.72;;;24.70;65.09
71964;BME280;59834;52.124;5.422;2022-08-19T12:59:37;101460.38;;;24.71;64.62
71964;BME280;59834;52.124;5.422;2022-08-19T13:02:06;101454.25;;;24.62;64.98
71964;BME280;59834;52.124;5.422;2022-08-19T13:04:34;101449.59;;;24.56;65.72
71964;BME280;59834;52.124;5.422;2022-08-19T13:07:07;101449.50;;;24.41;65.75
71964;BME280;59834;52.124;5.422;2022-08-19T13:09:35;101454.00;;;24.33;66.68
71964;BME280;59834;52.124;5.422;2022-08-19T13:12:08;101455.88;;;24.24;66.74
71964;BME280;59834;52.124;5.422;2022-08-19T13:14:42;101461.25;;;24.16;66.54
71964;BME280;59834;52.124;5.422;2022-08-19T13:17:09;101456.09;;;24.06;66.94
71964;BME280;59834;52.124;5.422;2022-08-19T13:19:38;101462.28;;;24.07;67.86
71964;BME280;59834;52.124;5.422;2022-08-19T13:22:07;101456.28;;;24.05;67.14
71964;BME280;59834;52.124;5.422;2022-08-19T13:24:40;101460.44;;;23.91;67.87
71964;BME280;59834;52.124;5.422;2022-08-19T13:27:12;101463.31;;;23.73;68.56
71964;BME280;59834;52.124;5.422;2022-08-19T13:29:40;101461.00;;;23.70;69.67
71964;BME280;59834;52.124;5.422;2022-08-19T13:32:25;101458.28;;;23.53;70.11
71964;BME280;59834;52.124;5.422;2022-08-19T13:35:57;101458.63;;;23.59;69.39
71964;BME280;59834;52.124;5.422;2022-08-19T13:38:41;101453.09;;;23.60;69.94
71964;BME280;59834;52.124;5.422;2022-08-19T13:41:16;101450.44;;;23.60;70.47
71964;BME280;59834;52.124;5.422;2022-08-19T13:44:05;101448.97;;;23.58;70.57
71964;BME280;59834;52.124;5.422;2022-08-19T13:46:32;101451.63;;;23.49;71.42
71964;BME280;59834;52.124;5.422;2022-08-19T13:49:08;101458.97;;;23.47;71.08
71964;BME280;59834;52.124;5.422;2022-08-19T13:52:01;101468.78;;;23.30;71.58
71964;BME280;59834;52.124;5.422;2022-08-19T13:54:46;101472.94;;;23.17;73.63
71964;BME280;59834;52.124;5.422;2022-08-19T13:57:27;101474.59;;;23.01;76.23
71964;BME280;59834;52.124;5.422;2022-08-19T14:00:10;101477.81;;;22.71;78.61
71964;BME280;59834;52.124;5.422;2022-08-19T14:02:37;101481.97;;;22.31;78.99
71964;BME280;59834;52.124;5.422;2022-08-19T14:05:09;101476.13;;;22.09;80.30
71964;BME280;59834;52.124;5.422;2022-08-19T14:07:36;101469.63;;;22.04;81.31
71964;BME280;59834;52.124;5.422;2022-08-19T14:10:08;101472.06;;;21.97;81.77
71964;BME280;59834;52.124;5.422;2022-08-19T14:12:51;101464.69;;;21.91;81.06
71964;BME280;59834;52.124;5.422;2022-08-19T14:15:26;101471.69;;;21.92;82.61
71964;BME280;59834;52.124;5.422;2022-08-19T14:25:46;101477.44;;;22.05;81.49
71964;BME280;59834;52.124;5.422;2022-08-19T14:28:18;101475.56;;;21.98;81.73
71964;BME280;59834;52.124;5.422;2022-08-19T14:30:44;101486.00;;;21.91;82.23
71964;BME280;59834;52.124;5.422;2022-08-19T14:33:11;101480.88;;;21.72;83.84
71964;BME280;59834;52.124;5.422;2022-08-19T14:35:40;101471.66;;;21.66;84.61
71964;BME280;59834;52.124;5.422;2022-08-19T14:38:16;101482.00;;;21.69;84.98
71964;BME280;59834;52.124;5.422;2022-08-19T14:40:43;101476.53;;;21.71;85.51
71964;BME280;59834;52.124;5.422;2022-08-19T14:43:12;101474.00;;;21.87;83.96
71964;BME280;59834;52.124;5.422;2022-08-19T14:45:41;101463.25;;;21.97;83.50
71964;BME280;59834;52.124;5.422;2022-08-19T14:48:09;101465.91;;;21.97;83.55
71964;BME280;59834;52.124;5.422;2022-08-19T14:50:53;101473.91;;;21.97;83.71
71964;BME280;59834;52.124;5.422;2022-08-19T14:53:52;101467.63;;;22.06;83.28
71964;BME280;59834;52.124;5.422;2022-08-19T14:56:27;101463.00;;;22.34;83.36
71964;BME280;59834;52.124;5.422;2022-08-19T14:59:02;101462.06;;;22.51;81.95